createdAt,value
2018-06-01T00:01:27.044Z,109.70
2018-06-01T00:03:54.580Z,104.10
2018-06-01T00:06:22.527Z,100.67
2018-06-01T00:08:50.043Z,105.47
2018-06-01T00:11:17.555Z,115.00
2018-06-01T00:13:45.087Z,102.57
2018-06-01T00:16:12.635Z,110.10
2018-06-01T00:18:40.162Z,114.23
2018-06-01T00:21:07.734Z,116.97
2018-06-01T00:23:35.287Z,116.50
2018-06-01T00:26:02.798Z,116.13
2018-06-01T00:28:30.324Z,126.17
2018-06-01T00:30:57.892Z,116.40
2018-06-01T00:33:25.437Z,125.67
2018-06-01T00:35:52.943Z,118.00
2018-06-01T00:38:20.470Z,121.90
2018-06-01T00:40:48.103Z,120.53
2018-06-01T00:43:15.612Z,113.03
2018-06-01T00:45:43.119Z,115.80
2018-06-01T00:48:10.663Z,115.47
2018-06-01T00:50:38.537Z,123.07
2018-06-01T00:53:06.042Z,120.23
2018-06-01T00:55:33.557Z,119.07
2018-06-01T00:58:01.101Z,113.03
2018-06-01T01:00:28.614Z,114.63
2018-06-01T01:02:56.122Z,108.83
2018-06-01T01:05:23.650Z,107.80
2018-06-01T01:07:51.163Z,110.07
2018-06-01T01:10:18.719Z,98.30
2018-06-01T01:12:46.226Z,96.60
2018-06-01T01:15:13.761Z,111.30
2018-06-01T01:17:41.270Z,93.57
2018-06-01T01:20:09.211Z,104.40
2018-06-01T01:22:36.713Z,89.73
2018-06-01T01:25:04.227Z,93.83
2018-06-01T01:27:31.755Z,92.60
2018-06-01T01:29:59.266Z,100.27
2018-06-01T01:32:26.795Z,99.77
2018-06-01T01:34:54.303Z,92.90
2018-06-01T01:37:31.593Z,100.83
2018-06-01T01:39:59.115Z,86.60
2018-06-01T01:42:26.628Z,105.40
2018-06-01T01:44:54.157Z,88.27
2018-06-01T01:47:21.735Z,113.33
2018-06-01T01:49:55.106Z,109.17
2018-06-01T01:52:22.657Z,111.07
2018-06-01T01:54:50.179Z,94.83
2018-06-01T01:57:17.697Z,103.50
2018-06-01T01:59:45.224Z,93.80
2018-06-01T02:02:12.743Z,107.13
2018-06-01T02:04:40.269Z,112.67
2018-06-01T02:07:07.788Z,114.67
2018-06-01T02:09:35.354Z,112.10
2018-06-01T02:12:02.869Z,108.47
2018-06-01T02:14:30.378Z,103.47
2018-06-01T02:16:57.922Z,103.57
2018-06-01T02:19:25.516Z,95.43
2018-06-01T02:21:53.191Z,93.47
2018-06-01T02:24:20.717Z,108.83
2018-06-01T02:26:48.226Z,115.13
2018-06-01T02:29:15.755Z,108.40
2018-06-01T02:31:43.269Z,116.07
2018-06-01T02:34:10.839Z,128.10
2018-06-01T02:36:38.363Z,148.73
2018-06-01T02:39:06.596Z,127.43
2018-06-01T02:41:34.173Z,154.43
2018-06-01T02:44:01.690Z,142.77
2018-06-01T02:46:29.218Z,149.60
2018-06-01T02:48:56.788Z,141.80
2018-06-01T02:51:24.299Z,159.03
2018-06-01T02:53:51.810Z,142.27
2018-06-01T02:56:19.399Z,127.87
2018-06-01T02:58:46.919Z,154.57
2018-06-01T03:01:14.440Z,145.90
2018-06-01T03:03:42.007Z,154.07
2018-06-01T03:06:09.519Z,162.97
2018-06-01T03:08:37.026Z,144.17
2018-06-01T03:11:04.569Z,163.27
2018-06-01T03:13:32.105Z,148.07
2018-06-01T03:15:59.806Z,138.90
2018-06-01T03:18:27.314Z,148.30
2018-06-01T03:20:54.830Z,161.30
2018-06-01T03:23:22.372Z,152.87
2018-06-01T03:25:49.875Z,142.00
2018-06-01T03:28:17.428Z,132.83
2018-06-01T03:30:44.951Z,140.10
2018-06-01T03:33:12.515Z,140.93
2018-06-01T03:35:40.018Z,139.67
2018-06-01T03:38:07.527Z,139.33
2018-06-01T03:40:35.093Z,149.90
2018-06-01T03:43:02.610Z,143.10
2018-06-01T03:45:30.128Z,147.90
2018-06-01T03:47:58.165Z,150.53
2018-06-01T03:50:25.692Z,155.70
2018-06-01T03:52:53.203Z,128.80
2018-06-01T03:55:20.741Z,137.77
2018-06-01T03:57:48.584Z,118.23
2018-06-01T04:00:16.110Z,122.53
2018-06-01T04:02:43.642Z,112.40
2018-06-01T04:05:11.179Z,117.37
2018-06-01T04:07:38.691Z,109.13
2018-06-01T04:10:06.420Z,99.57
2018-06-01T04:12:33.922Z,99.37
2018-06-01T04:15:01.432Z,100.50
2018-06-01T04:17:29.075Z,89.10
2018-06-01T04:19:56.592Z,88.07
2018-06-01T04:22:24.109Z,84.33
2018-06-01T04:24:51.634Z,75.23
2018-06-01T04:27:19.296Z,82.30
2018-06-01T04:29:46.815Z,81.90
2018-06-01T04:32:14.321Z,73.13
2018-06-01T04:34:42.063Z,81.77
2018-06-01T04:37:09.580Z,72.17
2018-06-01T04:39:37.086Z,77.33
2018-06-01T04:42:04.609Z,83.33
2018-06-01T04:44:32.135Z,73.77
2018-06-01T04:46:59.655Z,66.80
2018-06-01T04:49:27.164Z,71.80
2018-06-01T04:51:54.687Z,72.27
2018-06-01T04:54:22.207Z,63.63
2018-06-01T04:56:49.739Z,63.53
2018-06-01T04:59:17.251Z,62.60
2018-06-01T05:01:44.952Z,67.43
2018-06-01T05:04:12.453Z,56.80
2018-06-01T05:06:39.955Z,62.57
2018-06-01T05:09:07.484Z,57.07
2018-06-01T05:11:34.987Z,59.23
2018-06-01T05:14:02.507Z,54.90
2018-06-01T05:16:30.017Z,54.50
2018-06-01T05:18:57.563Z,55.03
2018-06-01T05:21:25.081Z,60.77
2018-06-01T05:23:52.578Z,50.27
2018-06-01T05:26:20.472Z,53.83
2018-06-01T05:28:48.004Z,49.40
2018-06-01T05:31:15.540Z,49.20
2018-06-01T05:33:43.061Z,48.00
2018-06-01T05:36:10.772Z,56.37
2018-06-01T05:38:38.283Z,48.47
2018-06-01T05:41:05.783Z,52.80
2018-06-01T05:43:33.351Z,52.73
2018-06-01T05:46:00.864Z,50.77
2018-06-01T05:48:28.357Z,54.90
2018-06-01T05:50:55.892Z,59.90
2018-06-01T05:53:23.404Z,59.93
2018-06-01T05:55:51.359Z,50.20
2018-06-01T05:58:18.866Z,53.80
2018-06-01T06:00:46.382Z,49.30
2018-06-01T06:03:13.934Z,44.73
2018-06-01T06:05:41.438Z,42.27
2018-06-01T06:08:08.943Z,42.83
2018-06-01T06:10:36.473Z,46.13
2018-06-01T06:13:04.172Z,42.20
2018-06-01T06:15:31.675Z,41.70
2018-06-01T06:17:59.177Z,49.43
2018-06-01T06:20:26.939Z,36.97
2018-06-01T06:22:54.442Z,34.40
2018-06-01T06:25:22.133Z,34.83
2018-06-01T06:27:49.644Z,36.00
2018-06-01T06:30:17.175Z,41.67
2018-06-01T06:32:44.707Z,35.67
2018-06-01T06:35:12.206Z,39.03
2018-06-01T06:37:40.143Z,43.22
2018-06-01T06:40:07.633Z,34.45
2018-06-01T06:42:35.153Z,30.02
2018-06-01T06:45:02.680Z,31.55
2018-06-01T06:47:30.187Z,23.97
2018-06-01T06:49:58.356Z,24.03
2018-06-01T06:52:25.891Z,23.80
2018-06-01T06:54:53.391Z,22.53
2018-06-01T06:57:21.112Z,19.80
2018-06-01T06:59:48.615Z,21.77
2018-06-01T07:02:16.128Z,23.10
2018-06-01T07:04:43.666Z,22.15
2018-06-01T07:07:11.176Z,18.65
2018-06-01T07:09:38.687Z,22.60
2018-06-01T07:12:06.251Z,22.63
2018-06-01T07:14:33.760Z,24.47
2018-06-01T07:17:01.273Z,22.83
2018-06-01T07:19:28.802Z,28.53
2018-06-01T07:21:56.313Z,32.10
2018-06-01T07:24:23.824Z,34.17
2018-06-01T07:26:51.349Z,30.10
2018-06-01T07:29:18.872Z,28.03
2018-06-01T07:31:46.410Z,38.17
2018-06-01T07:34:13.911Z,33.10
2018-06-01T07:36:41.427Z,36.87
2018-06-01T07:39:08.959Z,34.27
2018-06-01T07:41:36.697Z,33.77
2018-06-01T07:44:04.208Z,31.23
2018-06-01T07:46:31.715Z,37.00
2018-06-01T07:48:59.287Z,36.87
2018-06-01T07:51:26.791Z,39.23
2018-06-01T07:53:54.294Z,39.27
2018-06-01T07:56:22.140Z,38.77
2018-06-01T07:58:49.646Z,42.53
2018-06-01T08:01:17.147Z,45.97
2018-06-01T08:03:44.695Z,42.00
2018-06-01T08:06:12.203Z,45.90
2018-06-01T08:08:39.702Z,40.70
2018-06-01T08:11:07.223Z,40.37
2018-06-01T08:13:34.740Z,39.23
2018-06-01T08:16:02.271Z,38.20
2018-06-01T08:18:29.774Z,41.90
2018-06-01T08:20:57.303Z,40.60
2018-06-01T08:23:24.808Z,41.20
2018-06-01T08:25:52.341Z,42.10
2018-06-01T08:28:19.837Z,41.70
2018-06-01T08:30:47.359Z,40.13
2018-06-01T08:33:14.888Z,40.37
2018-06-01T08:35:42.401Z,42.07
2018-06-01T08:38:09.937Z,46.87
2018-06-01T08:40:37.429Z,48.47
2018-06-01T08:43:05.775Z,49.83
2018-06-01T08:45:33.280Z,48.30
2018-06-01T08:48:00.788Z,48.67
2018-06-01T08:50:28.334Z,50.23
2018-06-01T08:52:55.846Z,52.67
2018-06-01T08:55:23.356Z,64.20
2018-06-01T08:57:51.384Z,62.37
2018-06-01T09:00:18.891Z,62.23
2018-06-01T09:02:46.403Z,66.10
2018-06-01T09:05:13.931Z,72.47
2018-06-01T09:07:41.444Z,62.90
2018-06-01T09:10:09.033Z,69.00
2018-06-01T09:12:36.515Z,70.90
2018-06-01T09:15:04.147Z,70.20
2018-06-01T09:17:31.654Z,73.70
2018-06-01T09:19:59.177Z,76.77
2018-06-01T09:22:26.683Z,81.40
2018-06-01T09:24:54.371Z,76.30
2018-06-01T09:27:21.884Z,79.00
2018-06-01T09:29:49.412Z,71.53
2018-06-01T09:32:16.936Z,79.50
2018-06-01T09:34:44.444Z,71.87
2018-06-01T09:37:11.963Z,74.40
2018-06-01T09:39:39.471Z,77.73
2018-06-01T09:42:06.996Z,83.20
2018-06-01T09:44:34.525Z,78.43
2018-06-01T09:47:02.222Z,78.97
2018-06-01T09:49:29.727Z,78.30
2018-06-01T09:51:57.240Z,79.17
2018-06-01T09:54:24.758Z,77.87
2018-06-01T09:56:52.255Z,81.77
2018-06-01T09:59:19.761Z,75.13
2018-06-01T10:01:47.295Z,77.60
2018-06-01T10:04:14.844Z,71.37
2018-06-01T10:06:42.370Z,74.60
2018-06-01T10:09:09.874Z,74.73
2018-06-01T10:11:37.438Z,79.33
2018-06-01T10:14:04.935Z,77.00
2018-06-01T10:16:32.439Z,82.00
2018-06-01T10:19:00.378Z,78.63
2018-06-01T10:21:27.887Z,78.23
2018-06-01T10:23:55.397Z,75.40
2018-06-01T10:26:23.408Z,78.37
2018-06-01T10:28:50.931Z,71.50
2018-06-01T10:31:18.432Z,73.70
2018-06-01T10:33:46.127Z,76.53
2018-06-01T10:36:13.639Z,82.73
2018-06-01T10:38:41.139Z,76.47
2018-06-01T10:41:08.671Z,73.70
2018-06-01T10:43:36.174Z,82.73
2018-06-01T10:46:03.704Z,76.20
2018-06-01T10:48:31.226Z,69.93
2018-06-01T10:50:59.253Z,72.20
2018-06-01T10:53:26.755Z,71.53
2018-06-01T10:55:54.251Z,70.43
2018-06-01T10:58:21.790Z,74.83
2018-06-01T11:00:49.291Z,73.73
2018-06-01T11:03:16.824Z,64.73
2018-06-01T11:05:44.775Z,70.20
2018-06-01T11:08:12.282Z,67.70
2018-06-01T11:10:39.788Z,77.90
2018-06-01T11:13:07.716Z,69.67
2018-06-01T11:15:35.228Z,74.10
2018-06-01T11:18:02.733Z,72.73
2018-06-01T11:20:30.265Z,73.80
2018-06-01T11:22:57.786Z,66.50
2018-06-01T11:25:25.286Z,68.70
2018-06-01T11:27:52.814Z,58.33
2018-06-01T11:30:20.323Z,64.90
2018-06-01T11:32:47.863Z,54.43
2018-06-01T11:35:15.371Z,57.80
2018-06-01T11:37:42.877Z,61.40
2018-06-01T11:40:10.399Z,61.63
2018-06-01T11:42:38.286Z,57.50
2018-06-01T11:45:05.791Z,52.30
2018-06-01T11:47:33.295Z,52.67
2018-06-01T11:50:00.855Z,54.20
2018-06-01T11:52:28.358Z,53.43
2018-06-01T11:54:55.862Z,64.77
2018-06-01T11:57:23.420Z,57.13
2018-06-01T11:59:50.929Z,59.27
2018-06-01T12:02:18.444Z,61.20
2018-06-01T12:04:46.130Z,54.50
2018-06-01T12:07:13.644Z,55.43
2018-06-01T12:09:41.143Z,63.10
2018-06-01T12:12:08.661Z,68.80
2018-06-01T12:14:36.179Z,55.33
2018-06-01T12:17:03.710Z,60.80
2018-06-01T12:19:31.996Z,72.37
2018-06-01T12:21:59.876Z,75.00
2018-06-01T12:24:29.303Z,81.40
2018-06-01T12:26:57.056Z,88.13
2018-06-01T12:29:24.648Z,86.67
2018-06-01T12:31:52.151Z,90.37
2018-06-01T12:34:19.675Z,79.37
2018-06-01T12:36:47.202Z,81.53
2018-06-01T12:39:14.708Z,81.23
2018-06-01T12:41:42.230Z,82.27
2018-06-01T12:44:09.735Z,82.27
2018-06-01T12:46:37.261Z,79.87
2018-06-01T12:49:04.762Z,76.70
2018-06-01T12:51:32.282Z,80.63
2018-06-01T12:53:59.809Z,78.20
2018-06-01T12:56:27.479Z,74.37
2018-06-01T12:58:54.977Z,74.17
2018-06-01T13:01:22.479Z,70.00
2018-06-01T13:03:50.022Z,66.73
2018-06-01T13:06:17.531Z,68.13
2018-06-01T13:08:45.056Z,69.73
2018-06-01T13:11:12.564Z,75.97
2018-06-01T13:13:40.102Z,78.37
2018-06-01T13:16:07.623Z,78.83
2018-06-01T13:18:35.127Z,60.53
2018-06-01T13:21:02.868Z,54.70
2018-06-01T13:23:30.365Z,56.37
2018-06-01T13:25:57.866Z,57.40
2018-06-01T13:28:25.398Z,59.93
2018-06-01T13:30:52.898Z,57.67
2018-06-01T13:33:20.615Z,69.40
2018-06-01T13:35:48.118Z,86.70
2018-06-01T13:38:15.622Z,81.40
2018-06-01T13:40:43.351Z,85.03
2018-06-01T13:43:10.856Z,86.87
2018-06-01T13:45:38.354Z,86.57
2018-06-01T13:48:05.922Z,83.30
2018-06-01T13:50:33.438Z,91.10
2018-06-01T13:53:00.952Z,82.47
2018-06-01T13:55:28.511Z,95.73
2018-06-01T13:57:56.058Z,88.87
2018-06-01T14:00:23.565Z,89.60
2018-06-01T14:02:51.078Z,94.30
2018-06-01T14:05:18.611Z,91.67
2018-06-01T14:07:46.120Z,93.73
2018-06-01T14:10:13.639Z,94.67
2018-06-01T14:12:41.134Z,98.13
2018-06-01T14:15:08.676Z,109.70
2018-06-01T14:17:36.207Z,120.00
2018-06-01T14:20:03.739Z,122.83
2018-06-01T14:22:31.279Z,116.73
2018-06-01T14:24:58.786Z,120.87
2018-06-01T14:27:26.320Z,103.63
2018-06-01T14:29:53.815Z,80.37
2018-06-01T14:32:21.351Z,47.17
2018-06-01T14:34:48.850Z,68.90
2018-06-01T14:37:16.503Z,89.60
2018-06-01T14:39:44.018Z,107.77
2018-06-01T14:42:11.547Z,93.13
2018-06-01T14:44:39.075Z,98.67
2018-06-01T14:47:06.703Z,92.13
2018-06-01T14:49:34.345Z,90.10
2018-06-01T14:52:01.918Z,90.30
2018-06-01T14:54:29.495Z,87.70
2018-06-01T14:56:57.098Z,60.97
2018-06-01T14:59:24.610Z,56.80
2018-06-01T15:01:52.128Z,51.53
2018-06-01T15:04:19.653Z,52.47
2018-06-01T15:06:47.184Z,50.50
2018-06-01T15:09:14.710Z,52.60
2018-06-01T15:11:42.235Z,56.43
2018-06-01T15:14:09.763Z,33.53
2018-06-01T15:16:37.262Z,19.20
2018-06-01T15:19:04.792Z,22.40
2018-06-01T15:21:32.294Z,31.47
2018-06-01T15:23:59.856Z,24.20
2018-06-01T15:26:27.362Z,18.90
2018-06-01T15:28:54.876Z,21.53
2018-06-01T15:31:22.724Z,17.33
2018-06-01T15:33:50.233Z,11.73
2018-06-01T15:36:17.765Z,16.00
2018-06-01T15:38:45.306Z,11.13
2018-06-01T15:41:12.822Z,10.80
2018-06-01T15:43:40.339Z,9.37
2018-06-01T15:46:07.834Z,8.73
2018-06-01T15:48:35.392Z,8.77
2018-06-01T15:51:02.893Z,8.07
2018-06-01T15:53:30.402Z,10.30
2018-06-01T15:55:57.927Z,10.20
2018-06-01T15:58:25.426Z,8.37
2018-06-01T16:00:53.383Z,10.40
2018-06-01T16:03:20.892Z,10.80
2018-06-01T16:05:48.393Z,7.83
2018-06-01T16:08:15.942Z,9.90
2018-06-01T16:10:43.447Z,7.90
2018-06-01T16:13:10.985Z,11.57
2018-06-01T16:15:38.482Z,14.90
2018-06-01T16:18:06.331Z,12.93
2018-06-01T16:20:33.841Z,12.03
2018-06-01T16:23:01.338Z,15.43
2018-06-01T16:25:28.863Z,14.40
2018-06-01T16:27:56.365Z,12.83
2018-06-01T16:30:24.058Z,15.63
2018-06-01T16:32:52.666Z,12.70
2018-06-01T16:35:20.179Z,13.67
2018-06-01T16:37:47.918Z,12.10
2018-06-01T16:40:15.503Z,13.53
2018-06-01T16:42:43.002Z,12.90
2018-06-01T16:45:10.517Z,14.43
2018-06-01T16:47:38.023Z,12.80
2018-06-01T16:50:05.560Z,10.57
2018-06-01T16:52:33.067Z,11.40
2018-06-01T16:55:00.615Z,12.50
2018-06-01T16:57:28.793Z,12.50
2018-06-01T16:59:56.322Z,12.20
2018-06-01T17:02:23.832Z,14.50
2018-06-01T17:04:51.842Z,12.90
2018-06-01T17:07:19.342Z,11.03
2018-06-01T17:09:46.843Z,13.60
2018-06-01T17:12:14.363Z,13.43
2018-06-01T17:14:41.866Z,10.73
2018-06-01T17:17:09.427Z,13.33
2018-06-01T17:19:36.937Z,12.10
2018-06-01T17:22:04.452Z,12.40
2018-06-01T17:24:31.974Z,10.77
2018-06-01T17:26:59.518Z,14.20
2018-06-01T17:29:27.088Z,14.60
2018-06-01T17:31:54.596Z,12.93
2018-06-01T17:34:22.290Z,13.83
2018-06-01T17:36:49.891Z,14.43
2018-06-01T17:39:17.411Z,14.63
2018-06-01T17:41:44.947Z,14.27
2018-06-01T17:44:12.498Z,12.30
2018-06-01T17:46:40.000Z,13.40
2018-06-01T17:49:07.524Z,11.67
2018-06-01T17:51:35.210Z,13.50
2018-06-01T17:54:03.515Z,11.93
2018-06-01T17:56:31.018Z,15.00
2018-06-01T17:58:58.535Z,14.00
2018-06-01T18:01:26.172Z,28.10
2018-06-01T18:03:53.676Z,16.17
2018-06-01T18:06:21.181Z,14.30
2018-06-01T18:08:48.711Z,14.50
2018-06-01T18:11:16.220Z,15.30
2018-06-01T18:13:44.774Z,16.73
2018-06-01T18:16:12.271Z,14.00
2018-06-01T18:18:41.484Z,15.77
2018-06-01T18:21:08.988Z,12.90
2018-06-01T18:23:36.505Z,26.13
2018-06-01T18:26:04.215Z,29.20
2018-06-01T18:28:31.723Z,25.17
2018-06-01T18:30:59.255Z,27.77
2018-06-01T18:33:26.775Z,28.33
2018-06-01T18:35:54.312Z,31.30
2018-06-01T18:38:21.814Z,31.27
2018-06-01T18:40:49.435Z,33.83
2018-06-01T18:43:16.984Z,39.50
2018-06-01T18:45:44.504Z,41.90
2018-06-01T18:48:12.074Z,40.00
2018-06-01T18:50:39.603Z,46.13
2018-06-01T18:53:07.143Z,46.00
2018-06-01T18:55:34.753Z,44.50
2018-06-01T18:58:02.643Z,54.03
2018-06-01T19:00:30.215Z,59.33
2018-06-01T19:02:57.726Z,59.40
2018-06-01T19:05:25.292Z,63.57
2018-06-01T19:07:52.995Z,58.83
2018-06-01T19:10:20.499Z,52.63
2018-06-01T19:12:48.059Z,64.27
2018-06-01T19:15:15.793Z,65.33
2018-06-01T19:17:43.312Z,71.30
2018-06-01T19:20:11.598Z,70.97
2018-06-01T19:22:39.632Z,70.27
2018-06-01T19:25:07.138Z,72.90
2018-06-01T19:27:34.647Z,78.67
2018-06-01T19:30:02.220Z,74.53
2018-06-01T19:32:29.728Z,75.50
2018-06-01T19:34:57.242Z,80.73
2018-06-01T19:37:25.171Z,79.70
2018-06-01T19:39:52.842Z,75.70
2018-06-01T19:42:20.367Z,90.80
2018-06-01T19:44:47.911Z,90.37
2018-06-01T19:47:15.418Z,88.80
2018-06-01T19:49:42.972Z,93.60
2018-06-01T19:52:10.553Z,99.30
2018-06-01T19:54:38.068Z,110.17
2018-06-01T19:57:05.580Z,103.43
2018-06-01T19:59:33.490Z,116.73
2018-06-01T20:02:00.995Z,124.37
2018-06-01T20:04:28.515Z,131.83
2018-06-01T20:06:56.272Z,125.67
2018-06-01T20:09:23.787Z,142.60
2018-06-01T20:14:18.744Z,130.03
2018-06-01T20:16:46.291Z,126.30
2018-06-01T20:19:13.833Z,142.50
2018-06-01T20:21:41.811Z,140.57
2018-06-01T20:24:09.325Z,139.63
2018-06-01T20:26:36.838Z,136.93
2018-06-01T20:29:04.829Z,157.53
2018-06-01T20:31:32.358Z,134.37
2018-06-01T20:33:59.881Z,136.73
2018-06-01T20:36:27.682Z,154.07
2018-06-01T20:38:55.214Z,151.10
2018-06-01T20:41:22.726Z,152.07
2018-06-01T20:43:50.260Z,148.80
2018-06-01T20:46:18.257Z,145.40
2018-06-01T20:48:45.810Z,153.77
2018-06-01T20:51:13.319Z,154.87
2018-06-01T20:53:40.843Z,148.67
2018-06-01T20:56:08.375Z,149.43
2018-06-01T20:58:36.318Z,134.30
2018-06-01T21:01:03.831Z,148.87
2018-06-01T21:03:31.348Z,143.57
2018-06-01T21:05:58.883Z,124.50
2018-06-01T21:08:26.467Z,134.90
2018-06-01T21:10:53.970Z,141.27
2018-06-01T21:13:21.510Z,145.00
2018-06-01T21:15:49.048Z,137.00
2018-06-01T21:18:16.569Z,139.03
2018-06-01T21:20:44.582Z,158.93
2018-06-01T21:23:12.096Z,134.77
2018-06-01T21:25:39.611Z,156.07
2018-06-01T21:28:07.152Z,128.97
2018-06-01T21:30:34.672Z,139.87
2018-06-01T21:33:02.212Z,131.07
2018-06-01T21:35:29.723Z,133.63
2018-06-01T21:37:57.291Z,126.10
2018-06-01T21:40:25.810Z,124.97
2018-06-01T21:42:53.315Z,130.83
2018-06-01T21:45:20.847Z,133.70
2018-06-01T21:47:48.367Z,131.40
2018-06-01T21:50:15.940Z,126.13
2018-06-01T21:52:43.455Z,110.83
2018-06-01T21:55:10.979Z,108.97
2018-06-01T21:57:38.503Z,106.20
2018-06-01T22:00:06.481Z,110.43
2018-06-01T22:02:33.996Z,102.37
2018-06-01T22:05:01.517Z,108.03
2018-06-01T22:07:29.052Z,106.80
2018-06-01T22:09:56.571Z,102.97
2018-06-01T22:12:24.448Z,114.10
2018-06-01T22:14:51.955Z,104.40
2018-06-01T22:17:19.465Z,106.83
2018-06-01T22:19:47.173Z,102.33
2018-06-01T22:22:14.688Z,108.73
2018-06-01T22:24:42.203Z,109.77
2018-06-01T22:27:09.736Z,102.90
2018-06-01T22:29:37.272Z,98.27
2018-06-01T22:32:04.774Z,109.67
2018-06-01T22:34:32.283Z,114.67
2018-06-01T22:37:00.179Z,116.17
2018-06-01T22:39:27.745Z,111.90
2018-06-01T22:41:55.254Z,124.20
2018-06-01T22:44:22.801Z,122.67
2018-06-01T22:46:50.315Z,121.83
2018-06-01T22:49:17.880Z,124.03
2018-06-01T22:51:45.398Z,123.77
2018-06-01T22:54:12.908Z,136.00
2018-06-01T22:56:40.443Z,123.97
2018-06-01T22:59:07.955Z,125.30
2018-06-01T23:01:35.917Z,134.97
2018-06-01T23:04:03.440Z,138.13
2018-06-01T23:06:30.956Z,142.77
2018-06-01T23:08:58.690Z,141.40
2018-06-01T23:11:26.194Z,134.67
2018-06-01T23:13:53.705Z,150.97
2018-06-01T23:16:21.234Z,162.87
2018-06-01T23:18:49.240Z,155.77
2018-06-01T23:21:16.757Z,151.43
2018-06-01T23:23:44.259Z,167.53
2018-06-01T23:26:11.794Z,156.00
2018-06-01T23:28:39.305Z,152.57
2018-06-01T23:31:06.841Z,165.00
2018-06-01T23:33:34.363Z,158.80
2018-06-01T23:36:01.902Z,144.77
2018-06-01T23:38:29.440Z,149.80
2018-06-01T23:40:56.955Z,161.40
2018-06-01T23:43:24.680Z,147.03
2018-06-01T23:45:52.182Z,162.80
2018-06-01T23:48:19.698Z,151.20
2018-06-01T23:50:47.584Z,146.60
2018-06-01T23:53:15.099Z,152.50
2018-06-01T23:55:42.611Z,159.63
2018-06-01T23:58:10.144Z,168.73
